Time;durP1;ratioP1;P1;durP2;ratioP2;P2;SDS_P1;SDS_P2;PMS_P1;PMS_P2;Temp;Humidity;BMP_temperature;BMP_pressure;BME280_temperature;BME280_humidity;BME280_pressure;Samples;Min_cycle;Max_cycle;Signal;HPM_P1;HPM_P2
2023/10/08 00:00:49;;;;;;;;;;;;;;;-140.72;100.00;52750.03;5062548;28;19925;-70
2023/10/08 00:03:15;;;;;;;;;;;;;;;-140.72;100.00;52725.69;5070747;28;19970;-70
2023/10/08 00:05:40;;;;;;;;;;;;;;;-140.72;100.00;52745.97;5062231;28;19956;-72
2023/10/08 00:08:06;;;;;;;;;;;;;;;-140.72;100.00;52750.03;5060868;28;19932;-70
2023/10/08 00:10:37;;;;;;;;;;;;;;;-140.72;100.00;52764.25;5058315;28;19933;-73
2023/10/08 00:13:02;;;;;;;;;;;;;;;-140.72;100.00;52758.16;5063724;28;19959;-77
2023/10/08 00:15:28;;;;;;;;;;;;;;;-140.72;100.00;52707.41;5067543;28;19995;-70
2023/10/08 00:17:54;;;;;;;;;;;;;;;-140.72;100.00;52780.47;5065829;28;19927;-70
2023/10/08 00:20:25;;;;;;;;;;;;;;;-140.72;100.00;52743.94;5062239;28;19943;-70
2023/10/08 00:22:54;;;;;;;;;;;;;;;-140.72;100.00;52784.53;5058590;28;19921;-70
2023/10/08 00:25:19;;;;;;;;;;;;;;;-140.72;100.00;52784.53;5067837;28;19926;-70
2023/10/08 00:27:45;;;;;;;;;;;;;;;-140.72;100.00;52731.75;5067345;28;19920;-70
2023/10/08 00:30:17;;;;;;;;;;;;;;;-140.72;100.00;52768.28;5064696;28;19924;-70
2023/10/08 00:32:43;;;;;;;;;;;;;;;-140.72;100.00;52752.06;5069603;28;20009;-70
2023/10/08 00:35:13;;;;;;;;;;;;;;;-140.72;100.00;52760.19;5073060;28;21564;-70
2023/10/08 00:37:40;;;;;;;;;;;;;;;-140.72;100.00;52752.06;5076267;28;19920;-70
2023/10/08 00:40:21;;;;;;;;;;;;;;;-140.72;100.00;52782.50;5077151;28;20066;-71
2023/10/08 00:42:46;;;;;;;;;;;;;;;-140.72;100.00;52762.22;5071289;28;20409;-70
2023/10/08 00:45:16;;;;;;;;;;;;;;;-140.72;100.00;52778.44;5073269;28;19929;-70
2023/10/08 00:47:45;;;;;;;;;;;;;;;-140.72;100.00;52756.13;5064345;28;19925;-70
2023/10/08 00:50:19;;;;;;;;;;;;;;;-140.72;100.00;52784.53;5070491;28;20019;-70
2023/10/08 00:52:54;;;;;;;;;;;;;;;-140.72;100.00;52758.16;5070677;28;19924;-70
2023/10/08 00:55:28;;;;;;;;;;;;;;;-140.72;100.00;52768.28;5071158;28;19925;-70
2023/10/08 00:57:57;;;;;;;;;;;;;;;-140.72;100.00;52780.47;5072165;28;20019;-70
2023/10/08 01:00:22;;;;;;;;;;;;;;;-140.72;100.00;52782.50;5082885;28;19920;-70
2023/10/08 01:02:54;;;;;;;;;;;;;;;-140.72;100.00;52752.06;5069952;28;20295;-70
2023/10/08 01:05:42;;;;;;;;;;;;;;;-140.72;100.00;52780.47;5071305;28;20003;-70
2023/10/08 01:08:06;;;;;;;;;;;;;;;-140.72;100.00;52784.53;5065360;28;19999;-70
2023/10/08 01:10:32;;;;;;;;;;;;;;;-140.72;100.00;52764.25;5071075;28;19970;-70
2023/10/08 01:13:05;;;;;;;;;;;;;;;-140.72;100.00;52778.44;5070566;28;19924;-70
2023/10/08 01:15:35;;;;;;;;;;;;;;;-140.72;100.00;52774.38;5065515;28;19925;-70
2023/10/08 01:18:00;;;;;;;;;;;;;;;-140.72;100.00;52739.88;5074583;28;20000;-70
2023/10/08 01:20:36;;;;;;;;;;;;;;;-140.72;100.00;52741.91;5072395;28;19972;-70
2023/10/08 01:23:10;;;;;;;;;;;;;;;-140.72;100.00;52750.03;5075000;28;20007;-70
2023/10/08 01:25:36;;;;;;;;;;;;;;;-140.72;100.00;52778.44;5071678;28;19954;-70
2023/10/08 01:28:08;;;;;;;;;;;;;;;-140.72;100.00;52772.34;5070860;28;19925;-70
2023/10/08 01:30:41;;;;;;;;;;;;;;;-140.72;100.00;52768.28;5070258;28;19964;-70
2023/10/08 01:33:11;;;;;;;;;;;;;;;-140.72;100.00;52768.28;5065958;28;19970;-70
2023/10/08 01:35:36;;;;;;;;;;;;;;;-140.72;100.00;52788.59;5060948;28;19954;-70
2023/10/08 01:38:03;;;;;;;;;;;;;;;-140.72;100.00;52768.28;5075117;28;19921;-71
2023/10/08 01:40:30;;;;;;;;;;;;;;;-140.72;100.00;52758.16;5069802;28;20458;-70
2023/10/08 01:43:00;;;;;;;;;;;;;;;-140.72;100.00;52798.72;5068176;28;19928;-70
2023/10/08 01:45:26;;;;;;;;;;;;;;;-140.72;100.00;52764.25;5061695;28;20294;-70
2023/10/08 01:47:53;;;;;;;;;;;;;;;-140.72;100.00;52745.97;5067502;28;19928;-70
2023/10/08 01:50:21;;;;;;;;;;;;;;;-140.72;100.00;52780.47;5070061;28;19963;-70
2023/10/08 01:52:49;;;;;;;;;;;;;;;-140.72;100.00;52748.00;5066013;28;19964;-70
2023/10/08 01:55:18;;;;;;;;;;;;;;;-140.72;100.00;52784.53;5069514;28;19921;-70
2023/10/08 01:57:44;;;;;;;;;;;;;;;-140.72;100.00;52752.06;5071887;28;20306;-70
2023/10/08 02:00:09;;;;;;;;;;;;;;;-140.72;100.00;52798.72;5075147;28;19931;-70
2023/10/08 02:02:35;;;;;;;;;;;;;;;-140.72;100.00;52814.97;5071223;28;20011;-70
2023/10/08 02:05:00;;;;;;;;;;;;;;;-140.72;100.00;52774.38;5073365;28;19928;-70
2023/10/08 02:07:25;;;;;;;;;;;;;;;-140.72;100.00;52762.22;5074119;28;19933;-70
2023/10/08 02:09:51;;;;;;;;;;;;;;;-140.72;100.00;52762.22;5073900;28;19924;-70
2023/10/08 02:12:16;;;;;;;;;;;;;;;-140.72;100.00;52762.22;5075350;28;19928;-70
2023/10/08 02:14:41;;;;;;;;;;;;;;;-140.72;100.00;52780.47;5071999;28;19928;-70
2023/10/08 02:17:09;;;;;;;;;;;;;;;-140.72;100.00;52780.47;5074049;28;19920;-69
2023/10/08 02:19:36;;;;;;;;;;;;;;;-140.72;100.00;52798.72;5068913;28;19974;-70
2023/10/08 02:22:05;;;;;;;;;;;;;;;-140.72;100.00;52784.53;5070550;28;19943;-70
2023/10/08 02:24:30;;;;;;;;;;;;;;;-140.72;100.00;52808.88;5062130;28;19924;-70
2023/10/08 02:26:57;;;;;;;;;;;;;;;-140.72;100.00;52833.22;5074117;28;19987;-70
2023/10/08 02:29:25;;;;;;;;;;;;;;;-140.72;100.00;52792.66;5075471;28;20286;-70
2023/10/08 02:31:50;;;;;;;;;;;;;;;-140.72;100.00;52760.19;5067679;28;19924;-70
2023/10/08 02:34:15;;;;;;;;;;;;;;;-140.72;100.00;52784.53;5068217;28;19924;-69
2023/10/08 02:36:41;;;;;;;;;;;;;;;-140.72;100.00;52825.13;5069502;28;19965;-69
2023/10/08 02:39:21;;;;;;;;;;;;;;;-140.72;100.00;52808.88;5079068;28;20020;-69
2023/10/08 02:41:46;;;;;;;;;;;;;;;-140.72;100.00;52819.03;5062828;28;19929;-69
2023/10/08 02:44:13;;;;;;;;;;;;;;;-140.72;100.00;52790.63;5073372;28;20062;-69
2023/10/08 02:46:42;;;;;;;;;;;;;;;-140.72;100.00;52806.84;5067707;28;20019;-69
2023/10/08 02:49:11;;;;;;;;;;;;;;;-140.72;100.00;52796.72;5064379;28;20015;-70
2023/10/08 02:51:40;;;;;;;;;;;;;;;-140.72;100.00;52802.78;5071441;28;19931;-69
2023/10/08 02:54:06;;;;;;;;;;;;;;;-140.72;100.00;52802.78;5063210;28;19929;-70
2023/10/08 02:56:32;;;;;;;;;;;;;;;-140.72;100.00;52772.34;5071971;28;21046;-69
2023/10/08 02:58:58;;;;;;;;;;;;;;;-140.72;100.00;52768.28;5068647;28;19920;-69
2023/10/08 03:01:23;;;;;;;;;;;;;;;-140.72;100.00;52784.53;5073216;28;19927;-71
2023/10/08 03:03:48;;;;;;;;;;;;;;;-140.72;100.00;52772.34;5068009;28;20379;-69
2023/10/08 03:06:14;;;;;;;;;;;;;;;-140.72;100.00;52778.44;5074201;28;20454;-69
2023/10/08 03:08:41;;;;;;;;;;;;;;;-140.72;100.00;52800.75;5069896;28;20401;-70
2023/10/08 03:11:16;;;;;;;;;;;;;;;-140.72;100.00;52819.03;5067918;28;19925;-70
2023/10/08 03:13:41;;;;;;;;;;;;;;;-140.72;100.00;52774.38;5067848;28;20019;-69
2023/10/08 03:16:11;;;;;;;;;;;;;;;-140.72;100.00;52776.41;5068615;28;20390;-70
2023/10/08 03:18:42;;;;;;;;;;;;;;;-140.72;100.00;52798.72;5061607;28;19971;-70
2023/10/08 03:21:20;;;;;;;;;;;;;;;-140.72;100.00;52814.97;5064129;28;19921;-70
2023/10/08 03:23:50;;;;;;;;;;;;;;;-140.72;100.00;52829.19;5066251;28;19920;-70
2023/10/08 03:28:58;;;;;;;;;;;;;;;-140.72;100.00;52796.72;5065753;28;19929;-69
2023/10/08 03:31:44;;;;;;;;;;;;;;;-140.72;100.00;52792.66;5073541;28;19916;-70
2023/10/08 03:34:13;;;;;;;;;;;;;;;-140.72;100.00;52800.75;5070038;28;19920;-70
2023/10/08 03:36:44;;;;;;;;;;;;;;;-140.72;100.00;52782.50;5069710;28;20016;-71
2023/10/08 03:39:13;;;;;;;;;;;;;;;-140.72;100.00;52768.28;5061419;28;19925;-70
2023/10/08 03:41:39;;;;;;;;;;;;;;;-140.72;100.00;52814.97;5073108;28;20007;-70
2023/10/08 03:44:14;;;;;;;;;;;;;;;-140.72;100.00;52796.72;5072337;28;19973;-70
2023/10/08 03:46:42;;;;;;;;;;;;;;;-140.72;100.00;52806.84;5070270;28;19950;-70
2023/10/08 03:49:24;;;;;;;;;;;;;;;-140.72;100.00;52825.13;5070414;28;20313;-70
2023/10/08 03:51:52;;;;;;;;;;;;;;;-140.72;100.00;52800.75;5070344;28;19927;-70
2023/10/08 03:54:29;;;;;;;;;;;;;;;-140.72;100.00;52774.38;5061007;28;19921;-71
2023/10/08 03:56:55;;;;;;;;;;;;;;;-140.72;100.00;52819.03;5066003;28;20392;-70
2023/10/08 03:59:30;;;;;;;;;;;;;;;-140.72;100.00;52778.44;5073355;28;19955;-71
2023/10/08 04:02:01;;;;;;;;;;;;;;;-140.72;100.00;52814.97;5069775;28;19924;-70
2023/10/08 04:04:48;;;;;;;;;;;;;;;-140.72;100.00;52810.91;5071375;28;19924;-71
2023/10/08 04:07:24;;;;;;;;;;;;;;;-140.72;100.00;52808.88;5068400;28;19920;-71
2023/10/08 04:09:55;;;;;;;;;;;;;;;-140.72;100.00;52798.72;5069483;28;19928;-71
2023/10/08 04:12:20;;;;;;;;;;;;;;;-140.72;100.00;52810.91;5071169;28;19962;-71
2023/10/08 04:14:45;;;;;;;;;;;;;;;-140.72;100.00;52800.75;5071202;28;19971;-71
2023/10/08 04:17:11;;;;;;;;;;;;;;;-140.72;100.00;52774.38;5071536;28;20010;-70
2023/10/08 04:19:36;;;;;;;;;;;;;;;-140.72;100.00;52817.00;5072809;28;20343;-70
2023/10/08 04:22:02;;;;;;;;;;;;;;;-140.72;100.00;52812.94;5062267;28;20506;-70
2023/10/08 04:24:28;;;;;;;;;;;;;;;-140.72;100.00;52810.91;5071608;28;19920;-70
2023/10/08 04:26:56;;;;;;;;;;;;;;;-140.72;100.00;52825.13;5057142;28;19926;-71
2023/10/08 04:29:22;;;;;;;;;;;;;;;-140.72;100.00;52800.75;5065406;28;19920;-70
2023/10/08 04:31:54;;;;;;;;;;;;;;;-140.72;100.00;52825.13;5067204;28;19921;-71
2023/10/08 04:34:22;;;;;;;;;;;;;;;-140.72;100.00;52808.88;5071911;28;20016;-70
2023/10/08 04:36:54;;;;;;;;;;;;;;;-140.72;100.00;52817.00;5069918;28;20363;-70
2023/10/08 04:39:32;;;;;;;;;;;;;;;-140.72;100.00;52863.66;5071932;28;19936;-71
2023/10/08 04:42:10;;;;;;;;;;;;;;;-140.72;100.00;52821.06;5064818;28;20003;-70
2023/10/08 04:44:38;;;;;;;;;;;;;;;-140.72;100.00;52833.22;5071511;28;20007;-70
2023/10/08 04:47:08;;;;;;;;;;;;;;;-140.72;100.00;52833.22;5071993;28;19989;-71
2023/10/08 04:49:34;;;;;;;;;;;;;;;-140.72;100.00;52831.19;5059215;28;20015;-71
2023/10/08 04:52:14;;;;;;;;;;;;;;;-140.72;100.00;52823.09;5070389;28;20118;-71
2023/10/08 04:54:40;;;;;;;;;;;;;;;-140.72;100.00;52800.75;5072725;28;19927;-71
2023/10/08 04:57:07;;;;;;;;;;;;;;;-140.72;100.00;52810.91;5054984;28;19967;-71
2023/10/08 04:59:33;;;;;;;;;;;;;;;-140.72;100.00;52804.81;5071341;28;19920;-71
2023/10/08 05:10:10;;;;;;;;;;;;;;;-140.72;100.00;52796.72;5071170;28;20054;-70
2023/10/08 05:12:45;;;;;;;;;;;;;;;-140.72;100.00;52802.78;5065194;28;19920;-70
2023/10/08 05:20:19;;;;;;;;;;;;;;;-140.72;100.00;52837.28;5074172;28;20375;-70
2023/10/08 05:22:47;;;;;;;;;;;;;;;-140.72;100.00;52812.94;5074020;28;19921;-70
2023/10/08 05:30:16;;;;;;;;;;;;;;;-140.72;100.00;52823.09;5073308;28;20290;-72
2023/10/08 05:36:10;;;;;;;;;;;;;;;-140.72;100.00;52827.16;5072993;28;20088;-71
2023/10/08 05:48:50;;;;;;;;;;;;;;;-140.72;100.00;52827.16;5069286;28;19926;-71
2023/10/08 05:51:33;;;;;;;;;;;;;;;-140.72;100.00;52796.72;5075092;28;19920;-72
2023/10/08 05:53:59;;;;;;;;;;;;;;;-140.72;100.00;52833.22;5073375;28;19920;-72
2023/10/08 05:56:42;;;;;;;;;;;;;;;-140.72;100.00;52829.19;5072535;28;19920;-71
2023/10/08 05:59:18;;;;;;;;;;;;;;;-140.72;100.00;52786.56;5074643;28;19928;-71
2023/10/08 06:01:46;;;;;;;;;;;;;;;-140.72;100.00;52831.19;5065748;28;20378;-71
2023/10/08 06:07:12;;;;;;;;;;;;;;;-140.72;100.00;52819.03;5073097;28;19928;-70
2023/10/08 06:09:39;;;;;;;;;;;;;;;-140.72;100.00;52790.63;5073716;28;19921;-71
2023/10/08 06:12:10;;;;;;;;;;;;;;;-140.72;100.00;52808.88;5073795;28;19920;-72
2023/10/08 06:15:07;;;;;;;;;;;;;;;-140.72;100.00;52849.47;5068541;28;19920;-77
2023/10/08 06:17:56;;;;;;;;;;;;;;;-140.72;100.00;52825.13;5073828;28;20390;-70
2023/10/08 06:20:25;;;;;;;;;;;;;;;-140.72;100.00;52810.91;5073433;28;19942;-72
2023/10/08 06:22:52;;;;;;;;;;;;;;;-140.72;100.00;52804.81;5075569;28;19935;-72
2023/10/08 06:25:22;;;;;;;;;;;;;;;-140.72;100.00;52788.59;5076778;28;20361;-75
2023/10/08 06:27:48;;;;;;;;;;;;;;;-140.72;100.00;52825.13;5065661;28;19943;-73
2023/10/08 06:30:16;;;;;;;;;;;;;;;-140.72;100.00;52835.25;5074733;28;20374;-73
2023/10/08 06:32:45;;;;;;;;;;;;;;;-140.72;100.00;52782.50;5071086;28;19928;-72
2023/10/08 06:35:17;;;;;;;;;;;;;;;-140.72;100.00;52837.28;5072783;28;19943;-73
2023/10/08 06:37:42;;;;;;;;;;;;;;;-140.72;100.00;52808.88;5076862;28;19928;-77
2023/10/08 06:40:30;;;;;;;;;;;;;;;-140.72;100.00;52817.00;5074908;28;19925;-72
2023/10/08 06:42:56;;;;;;;;;;;;;;;-140.72;100.00;52837.28;5074416;28;20290;-73
2023/10/08 06:45:22;;;;;;;;;;;;;;;-140.72;100.00;52772.34;5078286;28;19948;-77
2023/10/08 06:47:48;;;;;;;;;;;;;;;-140.72;100.00;52806.84;5079014;28;20282;-76
2023/10/08 06:50:15;;;;;;;;;;;;;;;-140.72;100.00;52810.91;5075651;28;19920;-77
2023/10/08 06:52:43;;;;;;;;;;;;;;;-140.72;100.00;52821.06;5076185;28;19953;-75
2023/10/08 06:55:11;;;;;;;;;;;;;;;-140.72;100.00;52758.16;5073387;28;19920;-76
2023/10/08 06:57:38;;;;;;;;;;;;;;;-140.72;100.00;52810.91;5070959;28;19929;-77
2023/10/08 07:00:10;;;;;;;;;;;;;;;-140.72;100.00;52823.09;5069435;28;19916;-74
2023/10/08 07:02:36;;;;;;;;;;;;;;;-140.72;100.00;52786.56;5062734;28;19928;-77
2023/10/08 07:05:09;;;;;;;;;;;;;;;-140.72;100.00;52810.91;5069141;28;19913;-78
2023/10/08 07:07:39;;;;;;;;;;;;;;;-140.72;100.00;52881.94;5069452;28;21738;-76
2023/10/08 07:10:05;;;;;;;;;;;;;;;-140.72;100.00;52802.78;5070683;28;19978;-77
2023/10/08 07:12:34;;;;;;;;;;;;;;;-140.72;100.00;52796.72;5074492;28;19962;-74
2023/10/08 07:15:01;;;;;;;;;;;;;;;-140.72;100.00;52796.72;5072469;28;20325;-76
2023/10/08 07:17:27;;;;;;;;;;;;;;;-140.72;100.00;52800.75;5078828;28;19955;-75
2023/10/08 07:19:53;;;;;;;;;;;;;;;-140.72;100.00;52812.94;5065870;28;20121;-76
2023/10/08 07:22:21;;;;;;;;;;;;;;;-140.72;100.00;52810.91;5077806;28;20019;-76
2023/10/08 07:24:50;;;;;;;;;;;;;;;-140.72;100.00;52841.34;5082570;28;20385;-75
2023/10/08 07:27:15;;;;;;;;;;;;;;;-140.72;100.00;52833.22;5079356;28;20432;-75
2023/10/08 07:29:41;;;;;;;;;;;;;;;-140.72;100.00;52829.19;5072741;28;19920;-77
2023/10/08 07:32:12;;;;;;;;;;;;;;;-140.72;100.00;52804.81;5086050;28;19924;-75
2023/10/08 07:34:37;;;;;;;;;;;;;;;-140.72;100.00;52853.53;5062969;28;19953;-75
2023/10/08 07:37:05;;;;;;;;;;;;;;;-140.72;100.00;52817.00;5071483;28;19962;-74
2023/10/08 07:41:56;;;;;;;;;;;;;;;-140.72;100.00;52847.44;5070087;28;19966;-75
2023/10/08 07:44:22;;;;;;;;;;;;;;;-140.72;100.00;52829.19;5067785;28;20368;-78
2023/10/08 07:46:51;;;;;;;;;;;;;;;-140.72;100.00;52804.81;5072826;28;19924;-77
2023/10/08 07:49:16;;;;;;;;;;;;;;;-140.72;100.00;52833.22;5067175;28;19924;-77
2023/10/08 07:51:48;;;;;;;;;;;;;;;-140.72;100.00;52849.47;5065217;28;19921;-77
2023/10/08 07:54:16;;;;;;;;;;;;;;;-140.72;100.00;52796.72;5069905;28;19921;-75
2023/10/08 07:56:42;;;;;;;;;;;;;;;-140.72;100.00;52796.72;5076918;28;20363;-75
2023/10/08 07:59:08;;;;;;;;;;;;;;;-140.72;100.00;52817.00;5072464;28;20416;-76
2023/10/08 08:01:34;;;;;;;;;;;;;;;-140.72;100.00;52841.34;5072946;28;19916;-75
2023/10/08 08:03:59;;;;;;;;;;;;;;;-140.72;100.00;52784.53;5070761;28;20379;-74
2023/10/08 08:06:25;;;;;;;;;;;;;;;-140.72;100.00;52772.34;5071155;28;19935;-76
2023/10/08 08:08:51;;;;;;;;;;;;;;;-140.72;100.00;52827.16;5071162;28;20386;-74
2023/10/08 08:11:24;;;;;;;;;;;;;;;-140.72;100.00;52800.75;5069860;28;20001;-77
2023/10/08 08:13:49;;;;;;;;;;;;;;;-140.72;100.00;52817.00;5069611;28;19982;-76
2023/10/08 08:16:18;;;;;;;;;;;;;;;-140.72;100.00;52814.97;5070315;28;20354;-76
2023/10/08 08:18:47;;;;;;;;;;;;;;;-140.72;100.00;52817.00;5061701;28;19928;-77
2023/10/08 08:21:15;;;;;;;;;;;;;;;-140.72;100.00;52796.72;5072896;28;19920;-76
2023/10/08 08:23:47;;;;;;;;;;;;;;;-140.72;100.00;52754.09;5069739;28;20400;-76
2023/10/08 08:27:07;;;;;;;;;;;;;;;-140.72;100.00;52796.72;5054873;28;19970;-76
2023/10/08 08:29:02;;;;;;;;;;;;;;;-140.72;100.00;52784.53;5061191;28;20392;-75
2023/10/08 08:31:35;;;;;;;;;;;;;;;-140.72;100.00;52784.53;5069343;28;19971;-75
2023/10/08 08:34:02;;;;;;;;;;;;;;;-140.72;100.00;52776.41;5071435;28;19923;-76
2023/10/08 08:36:28;;;;;;;;;;;;;;;-140.72;100.00;52739.88;5072560;28;20053;-74
2023/10/08 08:38:54;;;;;;;;;;;;;;;-140.72;100.00;52762.22;5067247;28;20019;-78
2023/10/08 08:41:20;;;;;;;;;;;;;;;-140.72;100.00;52798.72;5073431;28;19928;-80
2023/10/08 08:43:58;;;;;;;;;;;;;;;-140.72;100.00;52802.78;5066534;28;20021;-77
2023/10/08 08:46:35;;;;;;;;;;;;;;;-140.72;100.00;52792.66;5066078;28;20015;-75
2023/10/08 08:49:01;;;;;;;;;;;;;;;-140.72;100.00;52784.53;5074700;28;19920;-79
2023/10/08 08:51:29;;;;;;;;;;;;;;;-140.72;100.00;52796.72;5070882;28;19935;-77
2023/10/08 08:53:55;;;;;;;;;;;;;;;-140.72;100.00;52806.84;5075717;28;19924;-73
2023/10/08 08:56:21;;;;;;;;;;;;;;;-140.72;100.00;52774.38;5078365;28;19920;-75
2023/10/08 08:58:46;;;;;;;;;;;;;;;-140.72;100.00;52814.97;5070754;28;19973;-74
2023/10/08 09:01:13;;;;;;;;;;;;;;;-140.72;100.00;52780.47;5075161;28;20191;-74
2023/10/08 09:03:39;;;;;;;;;;;;;;;-140.72;100.00;52768.28;5068602;28;19924;-75
2023/10/08 09:06:05;;;;;;;;;;;;;;;-140.72;100.00;52760.19;5070214;28;19975;-77
2023/10/08 09:08:41;;;;;;;;;;;;;;;-140.72;100.00;52737.84;5068269;28;20014;-75
2023/10/08 09:11:08;;;;;;;;;;;;;;;-140.72;100.00;52756.13;5062749;28;20015;-75
2023/10/08 09:13:35;;;;;;;;;;;;;;;-140.72;100.00;52770.31;5074374;28;20534;-74
2023/10/08 09:16:07;;;;;;;;;;;;;;;-140.72;100.00;52776.41;5072177;28;20508;-74
2023/10/08 09:18:33;;;;;;;;;;;;;;;-140.72;100.00;52756.13;5074360;28;19916;-74
2023/10/08 09:21:22;;;;;;;;;;;;;;;-140.72;100.00;52800.75;5067007;28;19977;-75
2023/10/08 09:23:51;;;;;;;;;;;;;;;-140.72;100.00;52766.25;5071088;28;20015;-77
2023/10/08 09:26:18;;;;;;;;;;;;;;;-140.72;100.00;52745.97;5074150;28;19928;-75
2023/10/08 09:28:46;;;;;;;;;;;;;;;-140.72;100.00;52760.19;5060820;28;19920;-76
2023/10/08 09:31:12;;;;;;;;;;;;;;;-140.72;100.00;52770.31;5057549;28;19921;-77
2023/10/08 09:33:38;;;;;;;;;;;;;;;-140.72;100.00;52766.25;5071477;28;19943;-78
2023/10/08 09:36:06;;;;;;;;;;;;;;;-140.72;100.00;52748.00;5072714;28;19970;-76
2023/10/08 09:38:33;;;;;;;;;;;;;;;-140.72;100.00;52764.25;5062911;28;19939;-75
2023/10/08 09:41:00;;;;;;;;;;;;;;;-140.72;100.00;52723.66;5067423;28;19921;-77
2023/10/08 09:43:26;;;;;;;;;;;;;;;-140.72;100.00;52731.75;5090464;28;19928;-78
2023/10/08 09:45:59;;;;;;;;;;;;;;;-140.72;100.00;52748.00;5077104;28;19921;-76
2023/10/08 09:48:25;;;;;;;;;;;;;;;-140.72;100.00;52743.94;5076931;28;20410;-78
2023/10/08 09:50:52;;;;;;;;;;;;;;;-140.72;100.00;52727.72;5076155;28;20015;-75
2023/10/08 09:53:22;;;;;;;;;;;;;;;-140.72;100.00;52711.47;5065925;28;19921;-75
2023/10/08 09:55:54;;;;;;;;;;;;;;;-140.72;100.00;52729.75;5076008;28;20000;-72
2023/10/08 09:58:22;;;;;;;;;;;;;;;-140.72;100.00;52715.53;5071513;28;19944;-75
2023/10/08 10:00:48;;;;;;;;;;;;;;;-140.72;100.00;52748.00;5076195;28;20336;-76
2023/10/08 10:03:14;;;;;;;;;;;;;;;-140.72;100.00;52731.75;5076196;28;19946;-77
2023/10/08 10:05:40;;;;;;;;;;;;;;;-140.72;100.00;52707.41;5061200;28;20023;-75
2023/10/08 10:08:05;;;;;;;;;;;;;;;-140.72;100.00;52723.66;5069023;28;19936;-78
2023/10/08 10:10:31;;;;;;;;;;;;;;;-140.72;100.00;52689.16;5074893;28;19920;-77
2023/10/08 10:12:59;;;;;;;;;;;;;;;-140.72;100.00;52715.53;5076548;28;19931;-79
2023/10/08 10:15:24;;;;;;;;;;;;;;;-140.72;100.00;52723.66;5091204;28;19916;-76
2023/10/08 10:17:49;;;;;;;;;;;;;;;-140.72;100.00;52709.44;5085235;28;20007;-76
2023/10/08 10:20:15;;;;;;;;;;;;;;;-140.72;100.00;52715.53;5072350;28;19967;-76
2023/10/08 10:22:42;;;;;;;;;;;;;;;-140.72;100.00;52695.25;5075485;28;19920;-79
2023/10/08 10:25:20;;;;;;;;;;;;;;;-140.72;100.00;52705.38;5072855;28;19970;-76
2023/10/08 10:27:51;;;;;;;;;;;;;;;-140.72;100.00;52739.88;5065801;28;19936;-76
2023/10/08 10:30:18;;;;;;;;;;;;;;;-140.72;100.00;52674.94;5074628;28;19920;-73
2023/10/08 10:32:46;;;;;;;;;;;;;;;-140.72;100.00;52699.31;5072836;28;20401;-76
2023/10/08 10:35:15;;;;;;;;;;;;;;;-140.72;100.00;52717.56;5074115;28;19920;-76
2023/10/08 10:37:51;;;;;;;;;;;;;;;-140.72;100.00;52711.47;5076076;28;19980;-75
2023/10/08 10:40:41;;;;;;;;;;;;;;;-140.72;100.00;52727.72;5069630;28;20378;-75
2023/10/08 10:43:06;;;;;;;;;;;;;;;-140.72;100.00;52709.44;5072006;28;19931;-75
2023/10/08 10:45:43;;;;;;;;;;;;;;;-140.72;100.00;52711.47;5074445;28;19920;-77
2023/10/08 10:48:21;;;;;;;;;;;;;;;-140.72;100.00;52707.41;5076148;28;20139;-75
2023/10/08 10:53:56;;;;;;;;;;;;;;;-140.72;100.00;52674.94;5075218;28;20370;-76
2023/10/08 10:56:29;;;;;;;;;;;;;;;-140.72;100.00;52685.09;5075067;28;19920;-76
2023/10/08 10:58:58;;;;;;;;;;;;;;;-140.72;100.00;52654.66;5080638;28;19932;-74
2023/10/08 11:01:29;;;;;;;;;;;;;;;-140.72;100.00;52666.84;5074359;28;19943;-75
2023/10/08 11:03:57;;;;;;;;;;;;;;;-140.72;100.00;52648.56;5064118;28;19920;-75
2023/10/08 11:06:23;;;;;;;;;;;;;;;-140.72;100.00;52644.50;5066885;28;19927;-74
2023/10/08 11:08:49;;;;;;;;;;;;;;;-140.72;100.00;52683.06;5070747;28;19916;-75
2023/10/08 11:11:17;;;;;;;;;;;;;;;-140.72;100.00;52644.50;5073377;28;19916;-73
2023/10/08 11:13:42;;;;;;;;;;;;;;;-140.72;100.00;52626.25;5083584;28;20363;-69
2023/10/08 11:16:13;;;;;;;;;;;;;;;-140.72;100.00;52681.03;5073606;28;19926;-69
2023/10/08 11:18:42;;;;;;;;;;;;;;;-140.72;100.00;52687.13;5074017;28;19924;-69
2023/10/08 11:21:23;;;;;;;;;;;;;;;-140.72;100.00;52664.81;5073074;28;19924;-69
2023/10/08 11:23:55;;;;;;;;;;;;;;;-140.72;100.00;52670.88;5074248;28;19917;-69
2023/10/08 11:26:31;;;;;;;;;;;;;;;-140.72;100.00;52650.59;5074294;28;19977;-69
2023/10/08 11:29:00;;;;;;;;;;;;;;;-140.72;100.00;52658.72;5074453;28;19920;-69
2023/10/08 11:31:27;;;;;;;;;;;;;;;-140.72;100.00;52642.47;5074570;28;19926;-69
2023/10/08 11:33:58;;;;;;;;;;;;;;;-140.72;100.00;52650.59;5074639;28;20031;-70
2023/10/08 11:36:29;;;;;;;;;;;;;;;-140.72;100.00;52652.63;5074306;28;19916;-69
2023/10/08 11:39:00;;;;;;;;;;;;;;;-140.72;100.00;52630.31;5074217;28;19992;-69
2023/10/08 11:41:27;;;;;;;;;;;;;;;-140.72;100.00;52638.41;5080285;28;19920;-69
2023/10/08 11:43:53;;;;;;;;;;;;;;;-140.72;100.00;52622.19;5081874;28;19927;-69
2023/10/08 11:46:40;;;;;;;;;;;;;;;-140.72;100.00;52593.78;5079754;28;19920;-69
2023/10/08 11:49:05;;;;;;;;;;;;;;;-140.72;100.00;52607.97;5070112;28;20320;-70
2023/10/08 11:51:32;;;;;;;;;;;;;;;-140.72;100.00;52642.47;5079818;28;20003;-70
2023/10/08 11:53:57;;;;;;;;;;;;;;;-140.72;100.00;52618.13;5073163;28;19928;-69
2023/10/08 11:56:23;;;;;;;;;;;;;;;-140.72;100.00;52589.72;5073970;28;20008;-70
2023/10/08 11:58:51;;;;;;;;;;;;;;;-140.72;100.00;52642.47;5081462;28;20356;-69
2023/10/08 12:01:17;;;;;;;;;;;;;;;-140.72;100.00;52640.44;5073674;28;19924;-69
2023/10/08 12:03:44;;;;;;;;;;;;;;;-140.72;100.00;52644.50;5073034;28;19920;-71
2023/10/08 12:06:15;;;;;;;;;;;;;;;-140.72;100.00;52687.13;5075352;28;19916;-71
2023/10/08 12:08:41;;;;;;;;;;;;;;;-140.72;100.00;52626.25;5078858;28;19920;-75
2023/10/08 12:11:11;;;;;;;;;;;;;;;-140.72;100.00;52634.38;5061816;28;20011;-77
2023/10/08 12:13:52;;;;;;;;;;;;;;;-140.72;100.00;52650.59;5070945;28;19982;-79
2023/10/08 12:16:23;;;;;;;;;;;;;;;-140.72;100.00;52614.06;5075096;28;20332;-78
2023/10/08 12:18:52;;;;;;;;;;;;;;;-140.72;100.00;52612.03;5071110;28;19948;-77
2023/10/08 12:21:18;;;;;;;;;;;;;;;-140.72;100.00;52648.56;5074254;28;19995;-78
2023/10/08 12:23:51;;;;;;;;;;;;;;;-140.72;100.00;52607.97;5073604;28;19927;-77
2023/10/08 12:26:18;;;;;;;;;;;;;;;-140.72;100.00;52597.84;5083341;28;20053;-78
2023/10/08 12:31:47;;;;;;;;;;;;;;;-140.72;100.00;52589.72;5086850;28;19923;-79
2023/10/08 12:34:18;;;;;;;;;;;;;;;-140.72;100.00;52583.63;5079507;28;19917;-77
2023/10/08 12:36:45;;;;;;;;;;;;;;;-140.72;100.00;52573.50;5082550;28;20014;-77
2023/10/08 12:39:17;;;;;;;;;;;;;;;-140.72;100.00;52601.91;5076329;28;19972;-77
2023/10/08 12:41:43;;;;;;;;;;;;;;;-140.72;100.00;52599.88;5074723;28;19963;-77
2023/10/08 12:44:09;;;;;;;;;;;;;;;-140.72;100.00;52668.84;5078793;28;19920;-78
2023/10/08 12:46:34;;;;;;;;;;;;;;;-140.72;100.00;52624.22;5077054;28;20339;-73
2023/10/08 12:49:01;;;;;;;;;;;;;;;-140.72;100.00;52601.91;5075559;28;20390;-75
2023/10/08 12:51:31;;;;;;;;;;;;;;;-140.72;100.00;52646.53;5077086;28;19924;-75
2023/10/08 12:54:03;;;;;;;;;;;;;;;-140.72;100.00;52642.47;5077869;28;19953;-77
2023/10/08 12:56:35;;;;;;;;;;;;;;;-140.72;100.00;52656.69;5082200;28;19916;-77
2023/10/08 12:59:04;;;;;;;;;;;;;;;-140.72;100.00;52620.16;5088587;28;19920;-78
2023/10/08 13:01:51;;;;;;;;;;;;;;;-140.72;100.00;52664.81;5079685;28;19960;-77
2023/10/08 13:07:21;;;;;;;;;;;;;;;-140.72;100.00;52672.91;5073308;28;20317;-81
2023/10/08 13:09:46;;;;;;;;;;;;;;;-140.72;100.00;52640.44;5080681;28;19920;-81
2023/10/08 13:12:12;;;;;;;;;;;;;;;-140.72;100.00;52644.50;5080523;28;19946;-78
2023/10/08 13:14:39;;;;;;;;;;;;;;;-140.72;100.00;52642.47;5092003;28;19917;-79
2023/10/08 13:17:10;;;;;;;;;;;;;;;-140.72;100.00;52630.31;5093327;28;19920;-79